createdAt,value
2022-10-31T00:00:48.669Z,90.61
2022-10-31T00:03:16.943Z,90.37
2022-10-31T00:05:45.801Z,90.16
2022-10-31T00:08:13.635Z,90.81
2022-10-31T00:10:42.129Z,90.24
2022-10-31T00:13:10.824Z,90.67
2022-10-31T00:15:40.026Z,90.11
2022-10-31T00:18:10.822Z,90.82
2022-10-31T00:20:40.012Z,90.23
2022-10-31T00:23:08.624Z,90.64
2022-10-31T00:25:38.337Z,90.18
2022-10-31T00:28:07.480Z,90.24
2022-10-31T00:30:35.718Z,89.98
2022-10-31T00:33:05.652Z,90.40
2022-10-31T00:35:35.166Z,90.39
2022-10-31T00:38:02.947Z,90.02
2022-10-31T00:40:30.784Z,90.31
2022-10-31T00:42:59.030Z,89.76
2022-10-31T00:45:27.052Z,89.75
2022-10-31T00:47:54.844Z,89.74
2022-10-31T00:50:22.681Z,89.80
2022-10-31T00:52:52.220Z,90.21
2022-10-31T00:55:20.150Z,89.69
2022-10-31T00:57:49.244Z,89.81
2022-10-31T01:00:18.147Z,89.75
2022-10-31T01:02:46.023Z,90.06
2022-10-31T01:05:14.212Z,90.05
2022-10-31T01:07:43.211Z,90.42
2022-10-31T01:10:12.934Z,90.47
2022-10-31T01:12:42.119Z,90.92
2022-10-31T01:15:11.586Z,90.67
2022-10-31T01:17:39.839Z,90.47
2022-10-31T01:20:10.165Z,90.64
2022-10-31T01:22:37.954Z,90.45
2022-10-31T01:25:06.966Z,90.53
2022-10-31T01:27:36.240Z,90.61
2022-10-31T01:30:04.386Z,90.43
2022-10-31T01:32:32.325Z,90.69
2022-10-31T01:35:00.179Z,90.79
2022-10-31T01:37:28.112Z,90.92
2022-10-31T01:39:55.908Z,90.65
2022-10-31T01:42:24.979Z,90.80
2022-10-31T01:45:00.496Z,90.50
2022-10-31T01:47:45.325Z,90.54
2022-10-31T01:50:17.606Z,90.85
2022-10-31T01:52:48.401Z,90.84
2022-10-31T01:55:20.442Z,90.88
2022-10-31T01:57:52.960Z,90.63
2022-10-31T02:00:23.855Z,89.96
2022-10-31T02:02:53.209Z,90.45
2022-10-31T02:05:24.441Z,90.24
2022-10-31T02:07:58.270Z,90.31
2022-10-31T02:10:27.245Z,90.38
2022-10-31T02:12:59.549Z,89.69
2022-10-31T02:15:30.642Z,90.08
2022-10-31T02:17:59.079Z,90.23
2022-10-31T02:20:31.839Z,90.15
2022-10-31T02:23:27.404Z,89.84
2022-10-31T02:26:26.129Z,89.86
2022-10-31T02:29:18.214Z,90.11
2022-10-31T02:31:56.442Z,89.68
2022-10-31T02:34:31.084Z,90.20
2022-10-31T02:37:03.945Z,89.95
2022-10-31T02:39:40.960Z,89.62
2022-10-31T02:42:15.005Z,90.03
2022-10-31T02:44:51.734Z,90.39
2022-10-31T02:47:26.319Z,90.46
2022-10-31T02:49:59.524Z,90.31
2022-10-31T02:52:30.013Z,90.66
2022-10-31T02:54:58.160Z,90.13
2022-10-31T02:57:28.281Z,89.93
2022-10-31T03:00:00.687Z,89.98
2022-10-31T03:02:55.962Z,89.92
2022-10-31T03:05:38.269Z,89.86
2022-10-31T03:08:15.414Z,89.98
2022-10-31T03:10:49.408Z,89.53
2022-10-31T03:15:55.632Z,89.62
2022-10-31T03:18:31.194Z,89.16
2022-10-31T03:21:06.104Z,89.09
2022-10-31T03:23:36.600Z,89.25
2022-10-31T03:26:07.983Z,89.76
2022-10-31T03:28:39.732Z,89.88
2022-10-31T03:31:09.964Z,89.54
2022-10-31T03:33:42.385Z,89.55
2022-10-31T03:36:12.854Z,89.00
2022-10-31T03:38:43.518Z,88.83
2022-10-31T03:41:16.436Z,88.83
2022-10-31T03:43:49.970Z,88.90
2022-10-31T03:46:17.903Z,88.91
2022-10-31T03:48:47.088Z,89.33
2022-10-31T03:51:21.358Z,88.80
2022-10-31T03:53:55.382Z,89.27
2022-10-31T03:56:30.034Z,88.78
2022-10-31T03:59:02.574Z,89.55
2022-10-31T04:01:33.255Z,89.30
2022-10-31T04:04:04.184Z,89.29
2022-10-31T04:06:34.027Z,89.02
2022-10-31T04:09:05.713Z,88.93
2022-10-31T04:11:37.098Z,89.57
2022-10-31T04:14:06.848Z,89.52
2022-10-31T04:16:35.198Z,89.28
2022-10-31T04:19:04.416Z,89.62
2022-10-31T04:21:32.922Z,89.20
2022-10-31T04:24:00.888Z,89.50
2022-10-31T04:26:28.713Z,89.50
2022-10-31T04:28:56.597Z,89.05
2022-10-31T04:31:24.369Z,89.32
2022-10-31T04:33:52.173Z,89.72
2022-10-31T04:36:21.538Z,90.18
2022-10-31T04:38:49.300Z,89.66
2022-10-31T04:41:17.204Z,90.30
2022-10-31T04:43:45.044Z,90.03
2022-10-31T04:46:12.961Z,89.83
2022-10-31T04:48:40.951Z,90.13
2022-10-31T04:51:08.755Z,89.94
2022-10-31T04:53:38.052Z,89.87
2022-10-31T04:56:06.610Z,89.99
2022-10-31T04:58:34.643Z,90.59
2022-10-31T05:01:02.494Z,90.76
2022-10-31T05:03:30.343Z,89.93
2022-10-31T05:05:58.289Z,90.41
2022-10-31T05:08:26.120Z,90.01
2022-10-31T05:10:56.057Z,90.84
2022-10-31T05:13:25.083Z,90.33
2022-10-31T05:15:52.912Z,90.23
2022-10-31T05:18:20.969Z,90.61
2022-10-31T05:20:49.097Z,90.89
2022-10-31T05:23:16.933Z,90.95
2022-10-31T05:25:44.837Z,90.41
2022-10-31T05:28:17.212Z,91.08
2022-10-31T05:30:45.048Z,90.54
2022-10-31T05:33:14.451Z,90.35
2022-10-31T05:35:42.447Z,90.65
2022-10-31T05:38:10.222Z,90.52
2022-10-31T05:40:38.140Z,90.43
2022-10-31T05:43:06.117Z,90.92
2022-10-31T05:45:35.319Z,90.44
2022-10-31T05:48:04.158Z,90.73
2022-10-31T05:50:33.493Z,90.54
2022-10-31T05:53:02.841Z,90.48
2022-10-31T05:55:31.282Z,90.14
2022-10-31T05:57:59.819Z,90.42
2022-10-31T06:00:29.053Z,90.28
2022-10-31T06:03:02.453Z,90.05
2022-10-31T06:05:30.975Z,90.52
2022-10-31T06:07:59.509Z,89.88
2022-10-31T06:10:28.526Z,90.33
2022-10-31T06:12:56.603Z,90.02
2022-10-31T06:15:24.990Z,90.12
2022-10-31T06:18:05.480Z,90.01
2022-10-31T06:20:33.755Z,90.36
2022-10-31T06:23:02.199Z,89.96
2022-10-31T06:25:30.826Z,90.20
2022-10-31T06:27:58.815Z,89.54
2022-10-31T06:30:27.010Z,89.38
2022-10-31T06:32:54.800Z,89.54
2022-10-31T06:35:24.028Z,89.41
2022-10-31T06:37:55.200Z,89.13
2022-10-31T06:40:23.704Z,89.91
2022-10-31T06:42:59.212Z,89.09
2022-10-31T06:45:27.556Z,89.91
2022-10-31T06:48:16.139Z,90.08
2022-10-31T06:50:45.440Z,90.15
2022-10-31T06:53:14.189Z,89.72
2022-10-31T06:55:42.731Z,89.72
2022-10-31T06:58:11.982Z,89.97
2022-10-31T07:00:39.937Z,89.97
2022-10-31T07:03:09.500Z,89.96
2022-10-31T07:05:37.460Z,90.56
2022-10-31T07:08:09.478Z,90.49
2022-10-31T07:10:40.507Z,90.24
2022-10-31T07:13:13.495Z,90.16
2022-10-31T07:15:43.040Z,90.82
2022-10-31T07:18:12.678Z,90.45
2022-10-31T07:20:40.761Z,90.84
2022-10-31T07:23:10.870Z,90.75
2022-10-31T07:25:39.027Z,90.67
2022-10-31T07:28:06.984Z,90.76
2022-10-31T07:30:34.908Z,90.83
2022-10-31T07:33:02.761Z,91.12
2022-10-31T07:35:31.075Z,90.96
2022-10-31T07:37:59.856Z,91.34
2022-10-31T07:40:29.298Z,91.64
2022-10-31T07:42:59.740Z,91.58
2022-10-31T07:45:27.522Z,91.35
2022-10-31T07:47:55.714Z,91.93
2022-10-31T07:50:25.384Z,91.97
2022-10-31T07:53:01.649Z,91.54
2022-10-31T07:55:31.294Z,92.09
2022-10-31T07:58:00.654Z,92.29
2022-10-31T08:00:29.353Z,92.38
2022-10-31T08:03:01.891Z,92.90
2022-10-31T08:05:30.802Z,92.63
2022-10-31T08:07:59.220Z,92.57
2022-10-31T08:10:29.140Z,93.30
2022-10-31T08:13:00.141Z,92.71
2022-10-31T08:15:28.474Z,93.56
2022-10-31T08:17:56.360Z,93.06
2022-10-31T08:20:24.657Z,93.88
2022-10-31T08:22:57.283Z,93.08
2022-10-31T08:25:25.988Z,93.70
2022-10-31T08:27:54.370Z,93.70
2022-10-31T08:30:25.395Z,93.91
2022-10-31T08:33:00.684Z,93.58
2022-10-31T08:35:28.640Z,94.35
2022-10-31T08:37:57.118Z,94.77
2022-10-31T08:40:26.052Z,94.91
2022-10-31T08:43:01.589Z,95.49
2022-10-31T08:45:31.450Z,94.63
2022-10-31T08:48:01.071Z,95.43
2022-10-31T08:50:30.337Z,94.96
2022-10-31T08:53:06.283Z,95.05
2022-10-31T08:55:36.481Z,94.76
2022-10-31T08:58:06.003Z,94.62
2022-10-31T09:00:35.654Z,94.75
2022-10-31T09:03:05.692Z,94.97
2022-10-31T09:05:34.331Z,95.20
2022-10-31T09:08:03.946Z,94.89
2022-10-31T09:10:33.539Z,95.15
2022-10-31T09:13:02.824Z,95.55
2022-10-31T09:15:30.889Z,95.69
2022-10-31T09:18:00.462Z,95.33
2022-10-31T09:20:28.816Z,95.47
2022-10-31T09:23:00.361Z,95.54
2022-10-31T09:25:29.546Z,96.13
2022-10-31T09:28:01.495Z,95.96
2022-10-31T09:30:31.764Z,95.85
2022-10-31T09:33:02.406Z,96.34
2022-10-31T09:35:30.954Z,96.63
2022-10-31T09:38:00.018Z,97.31
2022-10-31T09:40:33.929Z,97.46
2022-10-31T09:43:10.478Z,97.90
2022-10-31T09:45:43.713Z,97.79
2022-10-31T09:48:31.793Z,97.22
2022-10-31T09:51:02.610Z,97.41
2022-10-31T09:53:36.342Z,97.25
2022-10-31T09:56:09.350Z,97.56
2022-10-31T09:58:43.667Z,97.45
2022-10-31T10:01:35.315Z,96.15
2022-10-31T10:04:20.995Z,97.45
2022-10-31T10:06:51.872Z,97.45
2022-10-31T10:12:01.590Z,96.84
2022-10-31T10:14:41.485Z,96.59
2022-10-31T10:17:22.917Z,96.36
2022-10-31T10:20:04.159Z,96.77
2022-10-31T10:22:41.165Z,95.90
2022-10-31T10:25:18.437Z,95.69
2022-10-31T10:27:56.761Z,95.71
2022-10-31T10:30:30.907Z,95.68
2022-10-31T10:33:00.713Z,95.54
2022-10-31T10:35:33.477Z,94.81
2022-10-31T10:38:11.337Z,94.38
2022-10-31T10:40:39.931Z,94.63
2022-10-31T10:43:21.381Z,93.80
2022-10-31T10:46:11.980Z,93.83
2022-10-31T10:48:57.930Z,93.51
2022-10-31T10:51:54.676Z,93.52
2022-10-31T10:54:56.579Z,93.44
2022-10-31T10:57:43.407Z,93.42
2022-10-31T11:00:20.592Z,92.96
2022-10-31T11:02:49.293Z,93.25
2022-10-31T11:05:25.061Z,92.24
2022-10-31T11:07:54.438Z,92.09
2022-10-31T11:10:22.432Z,92.04
2022-10-31T11:13:03.668Z,90.60
2022-10-31T11:15:35.921Z,91.51
2022-10-31T11:18:03.909Z,91.95
2022-10-31T11:20:35.635Z,91.91
2022-10-31T11:23:08.222Z,91.73
2022-10-31T11:25:36.271Z,91.97
2022-10-31T11:28:06.151Z,92.02
2022-10-31T11:30:46.138Z,91.31
2022-10-31T11:33:21.165Z,91.31
2022-10-31T11:35:53.396Z,91.15
2022-10-31T11:38:28.761Z,90.30
2022-10-31T11:41:00.216Z,89.24
2022-10-31T11:43:28.732Z,89.64
2022-10-31T11:45:56.734Z,89.31
2022-10-31T11:48:26.768Z,87.97
2022-10-31T11:50:57.795Z,88.42
2022-10-31T11:53:30.495Z,88.71
2022-10-31T11:56:08.214Z,86.44
2022-10-31T11:58:36.063Z,86.98
2022-10-31T12:01:04.064Z,86.50
2022-10-31T12:03:44.276Z,85.98
2022-10-31T12:06:20.718Z,86.29
2022-10-31T12:08:50.217Z,87.25
2022-10-31T12:11:41.016Z,86.50
2022-10-31T12:14:19.363Z,86.54
2022-10-31T12:16:52.589Z,85.53
2022-10-31T12:19:35.064Z,85.30
2022-10-31T12:22:13.927Z,85.51
2022-10-31T12:24:56.856Z,85.43
2022-10-31T12:27:37.323Z,85.06
2022-10-31T12:30:17.455Z,84.15
2022-10-31T12:33:07.057Z,83.39
2022-10-31T12:35:46.748Z,83.98
2022-10-31T12:38:28.945Z,83.60
2022-10-31T12:41:13.376Z,82.08
2022-10-31T12:43:48.544Z,81.67
2022-10-31T12:46:27.025Z,81.58
2022-10-31T12:49:18.624Z,82.17
2022-10-31T12:51:55.381Z,83.02
2022-10-31T12:54:45.507Z,82.69
2022-10-31T12:57:25.254Z,81.65
2022-10-31T12:59:58.920Z,82.24
2022-10-31T13:02:31.851Z,81.34
2022-10-31T13:05:04.502Z,81.93
2022-10-31T13:07:39.489Z,81.86
2022-10-31T13:10:17.324Z,81.27
2022-10-31T13:12:50.157Z,80.28
2022-10-31T13:15:23.034Z,80.52
2022-10-31T13:17:55.155Z,80.08
2022-10-31T13:20:27.785Z,79.15
2022-10-31T13:23:05.306Z,80.81
2022-10-31T13:25:46.782Z,80.70
2022-10-31T13:28:28.710Z,78.21
2022-10-31T13:30:56.582Z,79.05
2022-10-31T13:33:29.692Z,79.13
2022-10-31T13:36:16.912Z,79.07
2022-10-31T13:38:52.634Z,79.76
2022-10-31T13:41:35.060Z,79.36
2022-10-31T13:44:11.860Z,79.32
2022-10-31T13:49:39.035Z,79.01
2022-10-31T13:52:18.406Z,78.62
2022-10-31T13:54:48.189Z,79.67
2022-10-31T13:57:20.319Z,79.45
2022-10-31T13:59:53.680Z,79.03
2022-10-31T14:02:28.020Z,79.49
2022-10-31T14:05:00.304Z,79.26
2022-10-31T14:07:29.850Z,80.04
2022-10-31T14:10:01.399Z,79.63
2022-10-31T14:12:33.724Z,80.03
2022-10-31T14:15:07.746Z,81.14
2022-10-31T14:17:46.970Z,80.73
2022-10-31T14:20:40.812Z,81.33
2022-10-31T14:23:41.455Z,81.20
2022-10-31T14:26:21.323Z,81.29
2022-10-31T14:28:50.852Z,81.94
2022-10-31T14:31:37.502Z,80.71
2022-10-31T14:34:21.493Z,81.01
2022-10-31T14:37:01.402Z,81.25
2022-10-31T14:39:36.878Z,81.59
2022-10-31T14:42:22.709Z,80.75
2022-10-31T14:45:17.821Z,81.13
2022-10-31T14:47:58.295Z,81.50
2022-10-31T14:50:39.232Z,81.64
2022-10-31T14:53:08.271Z,82.14
2022-10-31T14:55:36.347Z,80.92
2022-10-31T14:58:09.281Z,80.85
2022-10-31T15:00:38.170Z,81.21
2022-10-31T15:03:16.732Z,80.13
2022-10-31T15:05:50.642Z,81.65
2022-10-31T15:08:32.951Z,80.92
2022-10-31T15:11:04.412Z,82.01
2022-10-31T15:13:32.310Z,81.89
2022-10-31T15:16:00.308Z,81.79
2022-10-31T15:18:30.643Z,81.97
2022-10-31T15:20:59.145Z,82.11
2022-10-31T15:23:29.355Z,82.44
2022-10-31T15:26:01.830Z,82.36
2022-10-31T15:28:30.287Z,82.38
2022-10-31T15:30:59.937Z,82.35
2022-10-31T15:33:38.305Z,82.04
2022-10-31T15:36:08.390Z,82.11
2022-10-31T15:38:36.423Z,82.12
2022-10-31T15:41:06.896Z,82.40
2022-10-31T15:43:37.735Z,82.30
2022-10-31T15:46:09.838Z,82.69
2022-10-31T15:48:41.574Z,82.57
2022-10-31T15:51:09.453Z,82.81
2022-10-31T15:53:43.937Z,82.68
2022-10-31T15:56:15.392Z,82.73
2022-10-31T15:58:48.151Z,82.78
2022-10-31T16:01:24.926Z,82.39
2022-10-31T16:04:06.650Z,82.46
2022-10-31T16:06:36.425Z,82.89
2022-10-31T16:09:06.155Z,82.72
2022-10-31T16:11:39.268Z,82.39
2022-10-31T16:14:16.245Z,82.89
2022-10-31T16:16:47.408Z,83.07
2022-10-31T16:19:21.550Z,82.92
2022-10-31T16:21:52.402Z,83.16
2022-10-31T16:24:24.722Z,82.95
2022-10-31T16:26:54.864Z,83.31
2022-10-31T16:29:30.751Z,82.62
2022-10-31T16:31:58.700Z,83.04
2022-10-31T16:34:27.923Z,83.15
2022-10-31T16:36:55.905Z,82.93
2022-10-31T16:39:23.743Z,83.07
2022-10-31T16:41:56.893Z,83.11
2022-10-31T16:44:26.901Z,83.07
2022-10-31T16:47:10.803Z,82.89
2022-10-31T16:49:40.244Z,83.77
2022-10-31T16:52:08.032Z,83.33
2022-10-31T16:54:36.210Z,83.24
2022-10-31T16:57:06.679Z,83.26
2022-10-31T16:59:36.216Z,83.39
2022-10-31T17:02:05.787Z,83.26
2022-10-31T17:04:33.759Z,83.27
2022-10-31T17:07:03.071Z,83.08
2022-10-31T17:09:31.025Z,83.08
2022-10-31T17:11:59.013Z,83.06
2022-10-31T17:14:27.579Z,83.09
2022-10-31T17:16:58.239Z,82.83
2022-10-31T17:19:26.034Z,83.07
2022-10-31T17:21:54.048Z,83.02
2022-10-31T17:24:23.477Z,83.18
2022-10-31T17:26:51.377Z,83.51
2022-10-31T17:31:47.090Z,84.04
2022-10-31T17:34:15.071Z,84.13
2022-10-31T17:36:42.872Z,84.42
2022-10-31T17:39:10.704Z,84.60
2022-10-31T17:41:39.891Z,84.30
2022-10-31T17:44:07.732Z,84.59
2022-10-31T17:46:35.555Z,84.32
2022-10-31T17:49:05.052Z,84.68
2022-10-31T17:51:32.901Z,85.05
2022-10-31T17:54:00.689Z,85.06
2022-10-31T17:56:28.465Z,85.29
2022-10-31T17:58:58.278Z,85.40
2022-10-31T18:01:26.259Z,85.37
2022-10-31T18:03:54.126Z,85.82
2022-10-31T18:06:21.976Z,85.83
2022-10-31T18:08:49.757Z,85.71
2022-10-31T18:11:20.809Z,85.92
2022-10-31T18:13:48.713Z,85.78
2022-10-31T18:16:19.694Z,84.21
2022-10-31T18:18:51.653Z,83.90
2022-10-31T18:21:19.514Z,83.53
2022-10-31T18:23:47.793Z,83.35
2022-10-31T18:26:15.735Z,82.73
2022-10-31T18:28:43.654Z,81.29
2022-10-31T18:31:11.588Z,80.66
2022-10-31T18:33:42.507Z,80.44
2022-10-31T18:36:12.203Z,80.03
2022-10-31T18:38:41.721Z,79.44
2022-10-31T18:41:10.246Z,79.88
2022-10-31T18:43:38.586Z,78.95
2022-10-31T18:46:08.919Z,78.33
2022-10-31T18:48:37.313Z,78.64
2022-10-31T18:51:08.534Z,78.21
2022-10-31T18:53:37.372Z,77.90
2022-10-31T18:56:08.887Z,75.84
2022-10-31T18:58:37.078Z,77.05
2022-10-31T19:01:07.874Z,76.27
2022-10-31T19:03:35.869Z,76.48
2022-10-31T19:06:04.102Z,76.17
2022-10-31T19:08:33.868Z,74.72
2022-10-31T19:17:22.053Z,74.05
2022-10-31T19:29:57.330Z,73.75
2022-10-31T19:32:29.583Z,73.75
2022-10-31T19:38:56.473Z,73.45
2022-10-31T19:44:51.496Z,73.09
2022-10-31T19:47:44.032Z,73.17
2022-10-31T19:51:39.084Z,73.48
2022-10-31T19:54:41.066Z,73.11
2022-10-31T19:58:05.401Z,73.28
2022-10-31T20:00:37.881Z,73.71
2022-10-31T20:09:21.267Z,73.74
2022-10-31T20:12:21.626Z,73.72
2022-10-31T20:15:48.351Z,73.96
2022-10-31T20:24:39.546Z,74.04
2022-10-31T20:34:28.754Z,73.85
2022-10-31T20:37:00.140Z,74.71
2022-10-31T20:43:13.342Z,74.91
2022-10-31T20:52:53.607Z,74.09
2022-10-31T20:55:34.827Z,74.72
2022-10-31T21:04:46.590Z,74.20
2022-10-31T21:07:17.232Z,74.62
2022-10-31T21:10:40.846Z,74.09
2022-10-31T21:20:22.777Z,74.35
2022-10-31T21:25:56.726Z,74.03
2022-10-31T21:29:08.416Z,74.51
2022-10-31T21:31:43.268Z,74.19
2022-10-31T21:34:35.523Z,73.63
2022-10-31T21:37:25.028Z,74.05
2022-10-31T21:42:57.133Z,73.99
2022-10-31T21:45:25.610Z,74.34
2022-10-31T21:47:53.845Z,73.95
2022-10-31T21:50:22.712Z,73.85
2022-10-31T21:52:52.253Z,74.06
2022-10-31T21:55:19.352Z,73.45
2022-10-31T21:57:47.322Z,73.89
2022-10-31T22:00:16.137Z,73.96
2022-10-31T22:02:44.327Z,74.13
2022-10-31T22:05:12.492Z,74.19
2022-10-31T22:07:40.726Z,74.23
2022-10-31T22:10:11.615Z,73.96
2022-10-31T22:12:39.708Z,73.98
2022-10-31T22:15:08.710Z,74.00
2022-10-31T22:17:37.370Z,73.82
2022-10-31T22:20:06.245Z,74.42
2022-10-31T22:22:34.292Z,74.38
2022-10-31T22:25:02.320Z,74.45
2022-10-31T22:27:31.847Z,73.97
2022-10-31T22:30:00.145Z,74.43
2022-10-31T22:32:28.461Z,74.48
2022-10-31T22:34:56.645Z,74.48
2022-10-31T22:37:24.720Z,74.67
2022-10-31T22:39:52.973Z,74.75
2022-10-31T22:42:21.232Z,74.30
2022-10-31T22:44:50.852Z,74.73
2022-10-31T22:47:18.906Z,74.46
2022-10-31T22:49:47.294Z,74.66
2022-10-31T22:52:15.470Z,74.75
2022-10-31T22:54:44.188Z,74.67
2022-10-31T22:57:12.300Z,75.26
2022-10-31T22:59:40.439Z,74.73
2022-10-31T23:02:12.436Z,75.20
2022-10-31T23:04:40.860Z,75.25
2022-10-31T23:07:11.282Z,75.11
2022-10-31T23:09:42.085Z,75.26
2022-10-31T23:12:33.303Z,74.47
2022-10-31T23:15:01.680Z,74.82
2022-10-31T23:17:31.332Z,74.10
2022-10-31T23:19:59.420Z,74.42
2022-10-31T23:22:27.638Z,74.03
2022-10-31T23:24:55.756Z,73.65
2022-10-31T23:27:24.644Z,74.09
2022-10-31T23:29:54.208Z,73.80
2022-10-31T23:32:25.143Z,74.09
2022-10-31T23:34:56.827Z,73.89
2022-10-31T23:37:27.110Z,74.08
2022-10-31T23:39:55.318Z,73.93
2022-10-31T23:42:24.274Z,74.10
2022-10-31T23:44:52.753Z,74.21
2022-10-31T23:47:21.332Z,74.19
2022-10-31T23:49:49.650Z,74.13
2022-10-31T23:52:19.643Z,74.38
2022-10-31T23:54:47.782Z,73.76
2022-10-31T23:57:17.308Z,73.61
2022-10-31T23:59:46.612Z,73.97
